sensor_id;sensor_type;location;lat;lon;timestamp;P1;durP1;ratioP1;P2;durP2;ratioP2
6640;SDS011;3356;49.360;8.266;2022-07-23T00:01:43;13.97;;;9.00;;
6640;SDS011;3356;49.360;8.266;2022-07-23T00:03:44;11.93;;;8.60;;
6640;SDS011;3356;49.360;8.266;2022-07-23T00:05:45;8.40;;;7.57;;
6640;SDS011;3356;49.360;8.266;2022-07-23T00:07:47;11.70;;;9.87;;
6640;SDS011;3356;49.360;8.266;2022-07-23T00:09:48;10.13;;;9.23;;
6640;SDS011;3356;49.360;8.266;2022-07-23T00:11:49;9.00;;;8.20;;
6640;SDS011;3356;49.360;8.266;2022-07-23T00:13:50;8.13;;;7.33;;
6640;SDS011;3356;49.360;8.266;2022-07-23T00:15:51;11.33;;;8.07;;
6640;SDS011;3356;49.360;8.266;2022-07-23T00:17:52;7.83;;;6.93;;
6640;SDS011;3356;49.360;8.266;2022-07-23T00:19:53;9.20;;;7.27;;
6640;SDS011;3356;49.360;8.266;2022-07-23T00:21:54;10.63;;;7.70;;
6640;SDS011;3356;49.360;8.266;2022-07-23T00:23:56;9.07;;;8.23;;
6640;SDS011;3356;49.360;8.266;2022-07-23T00:25:57;10.07;;;9.10;;
6640;SDS011;3356;49.360;8.266;2022-07-23T00:27:59;14.00;;;9.50;;
6640;SDS011;3356;49.360;8.266;2022-07-23T00:30:00;11.27;;;9.60;;
6640;SDS011;3356;49.360;8.266;2022-07-23T00:32:01;9.27;;;7.87;;
6640;SDS011;3356;49.360;8.266;2022-07-23T00:34:02;13.57;;;8.80;;
6640;SDS011;3356;49.360;8.266;2022-07-23T00:36:04;8.90;;;7.67;;
6640;SDS011;3356;49.360;8.266;2022-07-23T00:38:05;10.03;;;8.60;;
6640;SDS011;3356;49.360;8.266;2022-07-23T00:40:08;13.00;;;10.03;;
6640;SDS011;3356;49.360;8.266;2022-07-23T00:42:10;10.67;;;9.63;;
6640;SDS011;3356;49.360;8.266;2022-07-23T00:44:22;10.30;;;9.30;;
6640;SDS011;3356;49.360;8.266;2022-07-23T00:46:25;9.13;;;7.23;;
6640;SDS011;3356;49.360;8.266;2022-07-23T00:48:26;11.83;;;7.80;;
6640;SDS011;3356;49.360;8.266;2022-07-23T00:50:27;8.53;;;7.67;;
6640;SDS011;3356;49.360;8.266;2022-07-23T00:52:29;8.40;;;7.00;;
6640;SDS011;3356;49.360;8.266;2022-07-23T00:54:31;8.50;;;7.60;;
6640;SDS011;3356;49.360;8.266;2022-07-23T00:56:33;8.83;;;7.83;;
6640;SDS011;3356;49.360;8.266;2022-07-23T00:58:35;8.80;;;7.07;;
6640;SDS011;3356;49.360;8.266;2022-07-23T01:00:36;10.17;;;7.73;;
6640;SDS011;3356;49.360;8.266;2022-07-23T01:02:38;9.63;;;7.87;;
6640;SDS011;3356;49.360;8.266;2022-07-23T01:04:40;9.90;;;7.97;;
6640;SDS011;3356;49.360;8.266;2022-07-23T01:06:41;7.80;;;7.10;;
6640;SDS011;3356;49.360;8.266;2022-07-23T01:08:44;10.00;;;7.60;;
6640;SDS011;3356;49.360;8.266;2022-07-23T01:10:46;9.60;;;8.23;;
6640;SDS011;3356;49.360;8.266;2022-07-23T01:12:49;12.23;;;10.93;;
6640;SDS011;3356;49.360;8.266;2022-07-23T01:14:54;10.97;;;9.87;;
6640;SDS011;3356;49.360;8.266;2022-07-23T01:16:56;13.57;;;10.97;;
6640;SDS011;3356;49.360;8.266;2022-07-23T01:18:57;12.80;;;11.23;;
6640;SDS011;3356;49.360;8.266;2022-07-23T01:20:58;10.90;;;9.53;;
6640;SDS011;3356;49.360;8.266;2022-07-23T01:22:59;12.70;;;9.33;;
6640;SDS011;3356;49.360;8.266;2022-07-23T01:25:00;10.67;;;7.67;;
6640;SDS011;3356;49.360;8.266;2022-07-23T01:27:02;10.23;;;8.33;;
6640;SDS011;3356;49.360;8.266;2022-07-23T01:29:06;9.70;;;7.57;;
6640;SDS011;3356;49.360;8.266;2022-07-23T01:31:09;8.97;;;7.67;;
6640;SDS011;3356;49.360;8.266;2022-07-23T01:33:10;8.03;;;7.20;;
6640;SDS011;3356;49.360;8.266;2022-07-23T01:35:11;8.77;;;7.87;;
6640;SDS011;3356;49.360;8.266;2022-07-23T01:37:13;11.97;;;8.13;;
6640;SDS011;3356;49.360;8.266;2022-07-23T01:39:14;9.87;;;7.07;;
6640;SDS011;3356;49.360;8.266;2022-07-23T01:41:15;10.90;;;8.10;;
6640;SDS011;3356;49.360;8.266;2022-07-23T01:43:17;9.90;;;8.07;;
6640;SDS011;3356;49.360;8.266;2022-07-23T01:45:18;10.37;;;7.73;;
6640;SDS011;3356;49.360;8.266;2022-07-23T01:47:23;10.13;;;7.83;;
6640;SDS011;3356;49.360;8.266;2022-07-23T01:49:27;9.13;;;7.60;;
6640;SDS011;3356;49.360;8.266;2022-07-23T01:51:37;8.83;;;7.93;;
6640;SDS011;3356;49.360;8.266;2022-07-23T01:53:58;9.97;;;7.90;;
6640;SDS011;3356;49.360;8.266;2022-07-23T01:56:00;8.63;;;7.30;;
6640;SDS011;3356;49.360;8.266;2022-07-23T01:58:01;8.03;;;6.60;;
6640;SDS011;3356;49.360;8.266;2022-07-23T02:00:04;9.57;;;8.03;;
6640;SDS011;3356;49.360;8.266;2022-07-23T02:02:13;9.53;;;8.63;;
6640;SDS011;3356;49.360;8.266;2022-07-23T02:04:14;11.47;;;8.10;;
6640;SDS011;3356;49.360;8.266;2022-07-23T02:06:15;9.97;;;8.97;;
6640;SDS011;3356;49.360;8.266;2022-07-23T02:08:17;9.70;;;8.73;;
6640;SDS011;3356;49.360;8.266;2022-07-23T02:10:18;9.73;;;8.73;;
6640;SDS011;3356;49.360;8.266;2022-07-23T02:12:19;9.50;;;8.60;;
6640;SDS011;3356;49.360;8.266;2022-07-23T02:14:20;10.67;;;8.97;;
6640;SDS011;3356;49.360;8.266;2022-07-23T02:16:21;9.70;;;8.60;;
6640;SDS011;3356;49.360;8.266;2022-07-23T02:18:23;8.93;;;7.70;;
6640;SDS011;3356;49.360;8.266;2022-07-23T02:20:26;10.00;;;8.07;;
6640;SDS011;3356;49.360;8.266;2022-07-23T02:22:27;9.70;;;8.70;;
6640;SDS011;3356;49.360;8.266;2022-07-23T02:24:28;9.90;;;8.23;;
6640;SDS011;3356;49.360;8.266;2022-07-23T02:26:29;11.37;;;8.33;;
6640;SDS011;3356;49.360;8.266;2022-07-23T02:28:34;9.93;;;8.30;;
6640;SDS011;3356;49.360;8.266;2022-07-23T02:30:35;8.53;;;7.73;;
6640;SDS011;3356;49.360;8.266;2022-07-23T02:32:36;8.00;;;7.17;;
6640;SDS011;3356;49.360;8.266;2022-07-23T02:34:38;9.07;;;8.13;;
6640;SDS011;3356;49.360;8.266;2022-07-23T02:36:39;10.80;;;8.27;;
6640;SDS011;3356;49.360;8.266;2022-07-23T02:38:41;8.80;;;7.70;;
6640;SDS011;3356;49.360;8.266;2022-07-23T02:40:42;8.53;;;7.77;;
6640;SDS011;3356;49.360;8.266;2022-07-23T02:42:44;8.23;;;7.43;;
6640;SDS011;3356;49.360;8.266;2022-07-23T02:44:45;9.97;;;8.27;;
6640;SDS011;3356;49.360;8.266;2022-07-23T02:46:46;8.53;;;7.80;;
6640;SDS011;3356;49.360;8.266;2022-07-23T02:48:47;9.10;;;7.67;;
6640;SDS011;3356;49.360;8.266;2022-07-23T02:50:49;8.67;;;7.70;;
6640;SDS011;3356;49.360;8.266;2022-07-23T02:52:55;8.47;;;7.57;;
6640;SDS011;3356;49.360;8.266;2022-07-23T02:54:58;8.87;;;8.07;;
6640;SDS011;3356;49.360;8.266;2022-07-23T02:56:59;8.43;;;7.57;;
6640;SDS011;3356;49.360;8.266;2022-07-23T02:59:01;9.63;;;8.20;;
6640;SDS011;3356;49.360;8.266;2022-07-23T03:01:02;10.73;;;8.40;;
6640;SDS011;3356;49.360;8.266;2022-07-23T03:03:04;9.17;;;8.23;;
6640;SDS011;3356;49.360;8.266;2022-07-23T03:05:05;8.63;;;7.57;;
6640;SDS011;3356;49.360;8.266;2022-07-23T03:07:08;8.40;;;7.40;;
6640;SDS011;3356;49.360;8.266;2022-07-23T03:09:10;9.17;;;8.20;;
6640;SDS011;3356;49.360;8.266;2022-07-23T03:11:13;9.10;;;7.60;;
6640;SDS011;3356;49.360;8.266;2022-07-23T03:13:15;10.13;;;8.17;;
6640;SDS011;3356;49.360;8.266;2022-07-23T03:15:16;12.03;;;8.30;;
6640;SDS011;3356;49.360;8.266;2022-07-23T03:17:18;8.33;;;7.23;;
6640;SDS011;3356;49.360;8.266;2022-07-23T03:19:19;9.83;;;8.83;;
6640;SDS011;3356;49.360;8.266;2022-07-23T03:21:20;9.00;;;8.10;;
6640;SDS011;3356;49.360;8.266;2022-07-23T03:23:21;10.00;;;9.00;;
6640;SDS011;3356;49.360;8.266;2022-07-23T03:25:22;10.50;;;8.83;;
6640;SDS011;3356;49.360;8.266;2022-07-23T03:27:25;9.37;;;8.43;;
6640;SDS011;3356;49.360;8.266;2022-07-23T03:29:29;11.90;;;8.63;;
6640;SDS011;3356;49.360;8.266;2022-07-23T03:31:31;14.90;;;9.43;;
6640;SDS011;3356;49.360;8.266;2022-07-23T03:33:32;9.93;;;8.87;;
6640;SDS011;3356;49.360;8.266;2022-07-23T03:35:33;9.77;;;8.77;;
6640;SDS011;3356;49.360;8.266;2022-07-23T03:37:55;12.27;;;8.50;;
6640;SDS011;3356;49.360;8.266;2022-07-23T03:39:56;12.10;;;8.20;;
6640;SDS011;3356;49.360;8.266;2022-07-23T03:41:57;8.53;;;7.83;;
6640;SDS011;3356;49.360;8.266;2022-07-23T03:43:58;10.47;;;9.47;;
6640;SDS011;3356;49.360;8.266;2022-07-23T03:46:00;9.90;;;8.90;;
6640;SDS011;3356;49.360;8.266;2022-07-23T03:48:02;12.33;;;8.93;;
6640;SDS011;3356;49.360;8.266;2022-07-23T03:50:03;9.00;;;8.20;;
6640;SDS011;3356;49.360;8.266;2022-07-23T03:52:07;10.43;;;9.43;;
6640;SDS011;3356;49.360;8.266;2022-07-23T03:54:08;9.70;;;8.53;;
6640;SDS011;3356;49.360;8.266;2022-07-23T03:56:10;9.60;;;8.70;;
6640;SDS011;3356;49.360;8.266;2022-07-23T03:58:11;11.10;;;8.57;;
6640;SDS011;3356;49.360;8.266;2022-07-23T04:00:12;15.20;;;10.10;;
6640;SDS011;3356;49.360;8.266;2022-07-23T04:02:14;10.87;;;9.27;;
6640;SDS011;3356;49.360;8.266;2022-07-23T04:04:15;10.33;;;9.20;;
6640;SDS011;3356;49.360;8.266;2022-07-23T04:06:17;11.63;;;9.30;;
6640;SDS011;3356;49.360;8.266;2022-07-23T04:08:20;12.40;;;10.27;;
6640;SDS011;3356;49.360;8.266;2022-07-23T04:10:25;11.70;;;9.67;;
6640;SDS011;3356;49.360;8.266;2022-07-23T04:12:26;11.83;;;10.40;;
6640;SDS011;3356;49.360;8.266;2022-07-23T04:14:28;13.40;;;9.77;;
6640;SDS011;3356;49.360;8.266;2022-07-23T04:16:29;12.20;;;9.70;;
6640;SDS011;3356;49.360;8.266;2022-07-23T04:18:31;11.87;;;9.97;;
6640;SDS011;3356;49.360;8.266;2022-07-23T04:20:44;10.27;;;9.17;;
6640;SDS011;3356;49.360;8.266;2022-07-23T04:22:45;10.80;;;8.80;;
6640;SDS011;3356;49.360;8.266;2022-07-23T04:24:46;11.70;;;10.53;;
6640;SDS011;3356;49.360;8.266;2022-07-23T04:26:48;11.70;;;10.07;;
6640;SDS011;3356;49.360;8.266;2022-07-23T04:28:49;11.47;;;10.23;;
6640;SDS011;3356;49.360;8.266;2022-07-23T04:30:50;10.97;;;9.77;;
6640;SDS011;3356;49.360;8.266;2022-07-23T04:32:52;11.20;;;10.07;;
6640;SDS011;3356;49.360;8.266;2022-07-23T04:34:58;21.80;;;10.87;;
6640;SDS011;3356;49.360;8.266;2022-07-23T04:36:59;11.57;;;10.47;;
6640;SDS011;3356;49.360;8.266;2022-07-23T04:39:02;11.87;;;10.17;;
6640;SDS011;3356;49.360;8.266;2022-07-23T04:41:03;11.03;;;10.00;;
6640;SDS011;3356;49.360;8.266;2022-07-23T04:43:04;11.97;;;10.47;;
6640;SDS011;3356;49.360;8.266;2022-07-23T04:45:10;15.27;;;11.33;;
6640;SDS011;3356;49.360;8.266;2022-07-23T04:47:11;11.90;;;10.77;;
6640;SDS011;3356;49.360;8.266;2022-07-23T04:49:13;11.17;;;10.07;;
6640;SDS011;3356;49.360;8.266;2022-07-23T04:51:14;12.97;;;10.97;;
6640;SDS011;3356;49.360;8.266;2022-07-23T04:53:15;14.83;;;12.03;;
6640;SDS011;3356;49.360;8.266;2022-07-23T04:55:18;11.13;;;10.03;;
6640;SDS011;3356;49.360;8.266;2022-07-23T04:57:19;13.37;;;11.73;;
6640;SDS011;3356;49.360;8.266;2022-07-23T04:59:20;13.23;;;11.33;;
6640;SDS011;3356;49.360;8.266;2022-07-23T05:01:28;18.70;;;11.73;;
6640;SDS011;3356;49.360;8.266;2022-07-23T05:03:29;15.27;;;12.07;;
6640;SDS011;3356;49.360;8.266;2022-07-23T05:05:30;14.40;;;12.60;;
6640;SDS011;3356;49.360;8.266;2022-07-23T05:07:39;15.67;;;12.33;;
6640;SDS011;3356;49.360;8.266;2022-07-23T05:09:41;18.27;;;12.30;;
6640;SDS011;3356;49.360;8.266;2022-07-23T05:11:42;14.50;;;11.10;;
6640;SDS011;3356;49.360;8.266;2022-07-23T05:13:43;14.10;;;11.07;;
6640;SDS011;3356;49.360;8.266;2022-07-23T05:15:44;14.43;;;11.97;;
6640;SDS011;3356;49.360;8.266;2022-07-23T05:17:46;15.50;;;11.77;;
6640;SDS011;3356;49.360;8.266;2022-07-23T05:19:50;13.27;;;11.90;;
6640;SDS011;3356;49.360;8.266;2022-07-23T05:21:52;17.67;;;12.33;;
6640;SDS011;3356;49.360;8.266;2022-07-23T05:23:53;14.63;;;11.83;;
6640;SDS011;3356;49.360;8.266;2022-07-23T05:25:54;15.13;;;12.33;;
6640;SDS011;3356;49.360;8.266;2022-07-23T05:27:57;13.57;;;12.17;;
6640;SDS011;3356;49.360;8.266;2022-07-23T05:29:58;18.80;;;12.37;;
6640;SDS011;3356;49.360;8.266;2022-07-23T05:31:59;13.33;;;11.60;;
6640;SDS011;3356;49.360;8.266;2022-07-23T05:34:01;14.63;;;12.10;;
6640;SDS011;3356;49.360;8.266;2022-07-23T05:36:03;14.17;;;12.07;;
6640;SDS011;3356;49.360;8.266;2022-07-23T05:38:06;14.70;;;12.07;;
6640;SDS011;3356;49.360;8.266;2022-07-23T05:40:09;14.23;;;12.23;;
6640;SDS011;3356;49.360;8.266;2022-07-23T05:42:11;14.63;;;10.90;;
6640;SDS011;3356;49.360;8.266;2022-07-23T05:44:13;14.93;;;11.67;;
6640;SDS011;3356;49.360;8.266;2022-07-23T05:46:17;14.93;;;11.27;;
6640;SDS011;3356;49.360;8.266;2022-07-23T05:48:23;13.37;;;11.27;;
6640;SDS011;3356;49.360;8.266;2022-07-23T05:50:35;12.17;;;10.97;;
6640;SDS011;3356;49.360;8.266;2022-07-23T05:52:46;16.33;;;11.63;;
6640;SDS011;3356;49.360;8.266;2022-07-23T05:55:08;12.70;;;10.50;;
6640;SDS011;3356;49.360;8.266;2022-07-23T05:57:10;13.17;;;11.10;;
6640;SDS011;3356;49.360;8.266;2022-07-23T05:59:12;12.43;;;11.13;;
6640;SDS011;3356;49.360;8.266;2022-07-23T06:01:15;17.47;;;12.23;;
6640;SDS011;3356;49.360;8.266;2022-07-23T06:03:25;18.90;;;12.13;;
6640;SDS011;3356;49.360;8.266;2022-07-23T06:05:26;17.90;;;12.93;;
6640;SDS011;3356;49.360;8.266;2022-07-23T06:07:30;15.70;;;12.23;;
6640;SDS011;3356;49.360;8.266;2022-07-23T06:09:31;16.93;;;12.57;;
6640;SDS011;3356;49.360;8.266;2022-07-23T06:11:34;15.33;;;13.80;;
6640;SDS011;3356;49.360;8.266;2022-07-23T06:13:37;13.70;;;12.30;;
6640;SDS011;3356;49.360;8.266;2022-07-23T06:15:38;15.43;;;12.07;;
6640;SDS011;3356;49.360;8.266;2022-07-23T06:17:39;13.60;;;12.27;;
6640;SDS011;3356;49.360;8.266;2022-07-23T06:19:41;16.03;;;12.63;;
6640;SDS011;3356;49.360;8.266;2022-07-23T06:21:42;12.20;;;10.97;;
6640;SDS011;3356;49.360;8.266;2022-07-23T06:23:43;13.07;;;11.00;;
6640;SDS011;3356;49.360;8.266;2022-07-23T06:25:44;12.97;;;11.63;;
6640;SDS011;3356;49.360;8.266;2022-07-23T06:27:46;13.33;;;11.80;;
6640;SDS011;3356;49.360;8.266;2022-07-23T06:29:47;13.50;;;11.13;;
6640;SDS011;3356;49.360;8.266;2022-07-23T06:31:49;15.10;;;10.87;;
6640;SDS011;3356;49.360;8.266;2022-07-23T06:33:50;12.93;;;11.53;;
6640;SDS011;3356;49.360;8.266;2022-07-23T06:35:51;11.90;;;10.70;;
6640;SDS011;3356;49.360;8.266;2022-07-23T06:37:52;14.97;;;12.43;;
6640;SDS011;3356;49.360;8.266;2022-07-23T06:39:53;12.90;;;11.23;;
6640;SDS011;3356;49.360;8.266;2022-07-23T06:41:54;14.03;;;11.57;;
6640;SDS011;3356;49.360;8.266;2022-07-23T06:44:09;12.43;;;11.23;;
6640;SDS011;3356;49.360;8.266;2022-07-23T06:46:10;13.10;;;11.50;;
6640;SDS011;3356;49.360;8.266;2022-07-23T06:48:12;15.07;;;11.60;;
6640;SDS011;3356;49.360;8.266;2022-07-23T06:50:13;12.40;;;11.07;;
6640;SDS011;3356;49.360;8.266;2022-07-23T06:52:16;12.27;;;11.00;;
6640;SDS011;3356;49.360;8.266;2022-07-23T06:54:17;11.63;;;10.43;;
6640;SDS011;3356;49.360;8.266;2022-07-23T06:56:18;12.50;;;11.20;;
6640;SDS011;3356;49.360;8.266;2022-07-23T06:58:19;13.00;;;11.57;;
6640;SDS011;3356;49.360;8.266;2022-07-23T07:00:21;12.10;;;10.73;;
6640;SDS011;3356;49.360;8.266;2022-07-23T07:02:22;16.70;;;10.97;;
6640;SDS011;3356;49.360;8.266;2022-07-23T07:04:23;12.60;;;11.30;;
6640;SDS011;3356;49.360;8.266;2022-07-23T07:06:24;13.60;;;11.87;;
6640;SDS011;3356;49.360;8.266;2022-07-23T07:08:25;14.27;;;11.70;;
6640;SDS011;3356;49.360;8.266;2022-07-23T07:10:26;12.13;;;11.00;;
6640;SDS011;3356;49.360;8.266;2022-07-23T07:12:28;11.63;;;10.43;;
6640;SDS011;3356;49.360;8.266;2022-07-23T07:14:29;13.67;;;11.50;;
6640;SDS011;3356;49.360;8.266;2022-07-23T07:16:30;13.40;;;10.63;;
6640;SDS011;3356;49.360;8.266;2022-07-23T07:18:31;12.23;;;10.57;;
6640;SDS011;3356;49.360;8.266;2022-07-23T07:20:32;12.00;;;10.50;;
6640;SDS011;3356;49.360;8.266;2022-07-23T07:22:33;15.47;;;12.17;;
6640;SDS011;3356;49.360;8.266;2022-07-23T07:24:35;11.50;;;10.37;;
6640;SDS011;3356;49.360;8.266;2022-07-23T07:26:36;11.33;;;9.87;;
6640;SDS011;3356;49.360;8.266;2022-07-23T07:28:39;11.93;;;9.53;;
6640;SDS011;3356;49.360;8.266;2022-07-23T07:30:40;11.80;;;9.80;;
6640;SDS011;3356;49.360;8.266;2022-07-23T07:32:41;10.40;;;9.17;;
6640;SDS011;3356;49.360;8.266;2022-07-23T07:34:42;11.67;;;10.30;;
6640;SDS011;3356;49.360;8.266;2022-07-23T07:36:44;12.27;;;11.00;;
6640;SDS011;3356;49.360;8.266;2022-07-23T07:38:45;12.00;;;9.70;;
6640;SDS011;3356;49.360;8.266;2022-07-23T07:40:46;10.73;;;9.50;;
6640;SDS011;3356;49.360;8.266;2022-07-23T07:42:48;11.63;;;10.07;;
6640;SDS011;3356;49.360;8.266;2022-07-23T07:44:50;11.10;;;10.00;;
6640;SDS011;3356;49.360;8.266;2022-07-23T07:46:51;10.80;;;9.70;;
6640;SDS011;3356;49.360;8.266;2022-07-23T07:48:53;12.17;;;10.57;;
6640;SDS011;3356;49.360;8.266;2022-07-23T07:50:55;14.33;;;10.97;;
6640;SDS011;3356;49.360;8.266;2022-07-23T07:52:56;12.97;;;10.90;;
6640;SDS011;3356;49.360;8.266;2022-07-23T07:54:57;14.00;;;10.27;;
6640;SDS011;3356;49.360;8.266;2022-07-23T07:56:58;12.17;;;10.97;;
6640;SDS011;3356;49.360;8.266;2022-07-23T07:58:59;11.43;;;10.23;;
6640;SDS011;3356;49.360;8.266;2022-07-23T08:01:01;12.33;;;10.33;;
6640;SDS011;3356;49.360;8.266;2022-07-23T08:03:03;13.93;;;10.63;;
6640;SDS011;3356;49.360;8.266;2022-07-23T08:05:04;12.03;;;10.73;;
6640;SDS011;3356;49.360;8.266;2022-07-23T08:07:05;12.55;;;11.25;;
6640;SDS011;3356;49.360;8.266;2022-07-23T08:09:06;11.80;;;10.27;;
6640;SDS011;3356;49.360;8.266;2022-07-23T08:11:07;12.80;;;10.07;;
6640;SDS011;3356;49.360;8.266;2022-07-23T08:13:11;12.23;;;11.07;;
6640;SDS011;3356;49.360;8.266;2022-07-23T08:15:16;10.10;;;8.80;;
6640;SDS011;3356;49.360;8.266;2022-07-23T08:17:18;9.87;;;8.87;;
6640;SDS011;3356;49.360;8.266;2022-07-23T08:19:19;11.20;;;9.80;;
6640;SDS011;3356;49.360;8.266;2022-07-23T08:21:20;10.50;;;8.70;;
6640;SDS011;3356;49.360;8.266;2022-07-23T08:23:21;9.80;;;8.90;;
6640;SDS011;3356;49.360;8.266;2022-07-23T08:25:23;9.00;;;8.13;;
6640;SDS011;3356;49.360;8.266;2022-07-23T08:27:29;9.15;;;8.25;;
6640;SDS011;3356;49.360;8.266;2022-07-23T08:29:30;8.60;;;7.80;;
6640;SDS011;3356;49.360;8.266;2022-07-23T08:31:31;8.93;;;8.13;;
6640;SDS011;3356;49.360;8.266;2022-07-23T08:33:33;9.15;;;7.65;;
6640;SDS011;3356;49.360;8.266;2022-07-23T08:35:35;11.38;;;7.78;;
6640;SDS011;3356;49.360;8.266;2022-07-23T08:37:40;8.98;;;8.13;;
6640;SDS011;3356;49.360;8.266;2022-07-23T08:39:42;9.05;;;8.30;;
6640;SDS011;3356;49.360;8.266;2022-07-23T08:41:43;8.73;;;7.93;;
6640;SDS011;3356;49.360;8.266;2022-07-23T08:43:44;8.40;;;7.70;;
6640;SDS011;3356;49.360;8.266;2022-07-23T08:45:49;9.65;;;8.50;;
6640;SDS011;3356;49.360;8.266;2022-07-23T08:47:52;9.50;;;8.50;;
6640;SDS011;3356;49.360;8.266;2022-07-23T08:49:59;9.63;;;8.75;;
6640;SDS011;3356;49.360;8.266;2022-07-23T08:52:01;9.13;;;8.32;;
6640;SDS011;3356;49.360;8.266;2022-07-23T08:54:02;11.40;;;8.38;;
6640;SDS011;3356;49.360;8.266;2022-07-23T08:56:04;9.32;;;8.48;;
6640;SDS011;3356;49.360;8.266;2022-07-23T08:58:06;8.73;;;7.78;;
6640;SDS011;3356;49.360;8.266;2022-07-23T09:00:07;11.23;;;8.77;;
6640;SDS011;3356;49.360;8.266;2022-07-23T09:02:09;9.60;;;8.65;;
6640;SDS011;3356;49.360;8.266;2022-07-23T09:04:10;9.38;;;8.48;;
6640;SDS011;3356;49.360;8.266;2022-07-23T09:06:11;9.75;;;8.95;;
6640;SDS011;3356;49.360;8.266;2022-07-23T09:08:19;9.60;;;8.85;;
6640;SDS011;3356;49.360;8.266;2022-07-23T09:10:22;8.80;;;8.10;;
6640;SDS011;3356;49.360;8.266;2022-07-23T09:12:24;9.57;;;8.48;;
6640;SDS011;3356;49.360;8.266;2022-07-23T09:14:39;9.00;;;8.30;;
6640;SDS011;3356;49.360;8.266;2022-07-23T09:16:45;9.52;;;8.40;;
6640;SDS011;3356;49.360;8.266;2022-07-23T09:18:49;9.27;;;8.43;;
6640;SDS011;3356;49.360;8.266;2022-07-23T09:21:04;8.63;;;7.72;;
6640;SDS011;3356;49.360;8.266;2022-07-23T09:23:10;9.30;;;8.13;;
6640;SDS011;3356;49.360;8.266;2022-07-23T09:25:13;8.77;;;7.97;;
6640;SDS011;3356;49.360;8.266;2022-07-23T09:27:16;8.07;;;7.47;;
6640;SDS011;3356;49.360;8.266;2022-07-23T09:31:30;9.43;;;7.50;;
6640;SDS011;3356;49.360;8.266;2022-07-23T09:33:33;10.02;;;8.25;;
6640;SDS011;3356;49.360;8.266;2022-07-23T09:38:02;8.75;;;7.95;;
6640;SDS011;3356;49.360;8.266;2022-07-23T09:40:04;9.45;;;8.55;;
6640;SDS011;3356;49.360;8.266;2022-07-23T09:42:16;8.50;;;7.75;;
6640;SDS011;3356;49.360;8.266;2022-07-23T09:44:22;8.93;;;8.23;;
6640;SDS011;3356;49.360;8.266;2022-07-23T09:46:24;8.98;;;8.27;;
6640;SDS011;3356;49.360;8.266;2022-07-23T09:48:27;9.02;;;8.23;;
6640;SDS011;3356;49.360;8.266;2022-07-23T09:50:28;9.13;;;8.40;;
6640;SDS011;3356;49.360;8.266;2022-07-23T09:52:30;8.90;;;8.00;;
6640;SDS011;3356;49.360;8.266;2022-07-23T09:54:37;9.05;;;8.25;;
6640;SDS011;3356;49.360;8.266;2022-07-23T09:56:40;9.02;;;8.30;;
6640;SDS011;3356;49.360;8.266;2022-07-23T09:58:42;8.52;;;7.75;;
6640;SDS011;3356;49.360;8.266;2022-07-23T10:01:04;9.52;;;8.70;;
6640;SDS011;3356;49.360;8.266;2022-07-23T10:03:05;9.32;;;8.52;;
6640;SDS011;3356;49.360;8.266;2022-07-23T10:05:16;10.05;;;9.15;;
6640;SDS011;3356;49.360;8.266;2022-07-23T10:07:40;8.90;;;8.10;;
6640;SDS011;3356;49.360;8.266;2022-07-23T10:10:02;9.23;;;8.35;;
6640;SDS011;3356;49.360;8.266;2022-07-23T10:12:34;8.70;;;7.82;;
6640;SDS011;3356;49.360;8.266;2022-07-23T10:14:42;9.27;;;8.48;;
6640;SDS011;3356;49.360;8.266;2022-07-23T10:16:44;8.77;;;8.07;;
6640;SDS011;3356;49.360;8.266;2022-07-23T10:18:46;8.80;;;7.72;;
6640;SDS011;3356;49.360;8.266;2022-07-23T10:20:48;9.00;;;8.13;;
6640;SDS011;3356;49.360;8.266;2022-07-23T10:22:57;8.68;;;7.97;;
6640;SDS011;3356;49.360;8.266;2022-07-23T10:25:32;8.73;;;7.93;;
6640;SDS011;3356;49.360;8.266;2022-07-23T10:31:57;8.93;;;8.05;;
6640;SDS011;3356;49.360;8.266;2022-07-23T10:34:14;8.60;;;7.75;;
6640;SDS011;3356;49.360;8.266;2022-07-23T10:36:32;8.85;;;8.05;;
6640;SDS011;3356;49.360;8.266;2022-07-23T10:38:47;9.80;;;8.80;;
6640;SDS011;3356;49.360;8.266;2022-07-23T10:41:01;9.90;;;9.00;;
6640;SDS011;3356;49.360;8.266;2022-07-23T10:43:04;9.52;;;8.52;;
6640;SDS011;3356;49.360;8.266;2022-07-23T10:47:29;9.63;;;8.73;;
6640;SDS011;3356;49.360;8.266;2022-07-23T10:49:43;8.63;;;7.72;;
6640;SDS011;3356;49.360;8.266;2022-07-23T10:54:21;9.60;;;8.73;;
6640;SDS011;3356;49.360;8.266;2022-07-23T10:58:54;8.45;;;7.60;;
6640;SDS011;3356;49.360;8.266;2022-07-23T11:01:30;8.32;;;7.68;;
6640;SDS011;3356;49.360;8.266;2022-07-23T11:03:35;9.93;;;9.13;;
6640;SDS011;3356;49.360;8.266;2022-07-23T11:05:45;8.65;;;7.72;;
6640;SDS011;3356;49.360;8.266;2022-07-23T11:10:07;9.15;;;8.35;;
6640;SDS011;3356;49.360;8.266;2022-07-23T11:12:33;9.57;;;8.50;;
6640;SDS011;3356;49.360;8.266;2022-07-23T11:16:55;9.88;;;8.98;;
6640;SDS011;3356;49.360;8.266;2022-07-23T11:18:57;8.85;;;7.95;;
6640;SDS011;3356;49.360;8.266;2022-07-23T11:21:14;8.82;;;8.02;;
6640;SDS011;3356;49.360;8.266;2022-07-23T11:24:15;9.48;;;8.50;;
6640;SDS011;3356;49.360;8.266;2022-07-23T11:25:56;8.77;;;8.13;;
6640;SDS011;3356;49.360;8.266;2022-07-23T11:28:19;9.38;;;8.68;;
6640;SDS011;3356;49.360;8.266;2022-07-23T11:32:29;8.75;;;7.90;;
6640;SDS011;3356;49.360;8.266;2022-07-23T11:34:39;10.20;;;9.20;;
6640;SDS011;3356;49.360;8.266;2022-07-23T11:36:49;11.90;;;8.48;;
6640;SDS011;3356;49.360;8.266;2022-07-23T11:38:50;9.57;;;8.77;;
6640;SDS011;3356;49.360;8.266;2022-07-23T11:40:53;9.98;;;8.98;;
6640;SDS011;3356;49.360;8.266;2022-07-23T11:43:02;9.98;;;8.98;;
6640;SDS011;3356;49.360;8.266;2022-07-23T11:45:06;9.60;;;8.65;;
6640;SDS011;3356;49.360;8.266;2022-07-23T11:47:10;9.75;;;8.93;;
6640;SDS011;3356;49.360;8.266;2022-07-23T11:49:12;9.23;;;8.27;;
6640;SDS011;3356;49.360;8.266;2022-07-23T11:51:24;9.02;;;8.27;;
6640;SDS011;3356;49.360;8.266;2022-07-23T11:53:27;9.13;;;8.30;;
6640;SDS011;3356;49.360;8.266;2022-07-23T11:55:29;11.38;;;9.32;;
6640;SDS011;3356;49.360;8.266;2022-07-23T11:57:35;9.25;;;8.45;;
6640;SDS011;3356;49.360;8.266;2022-07-23T11:59:40;10.98;;;8.38;;
6640;SDS011;3356;49.360;8.266;2022-07-23T12:02:00;11.52;;;9.30;;
6640;SDS011;3356;49.360;8.266;2022-07-23T12:04:05;9.82;;;8.98;;
6640;SDS011;3356;49.360;8.266;2022-07-23T12:06:07;10.75;;;8.88;;
6640;SDS011;3356;49.360;8.266;2022-07-23T12:08:09;8.90;;;8.20;;
6640;SDS011;3356;49.360;8.266;2022-07-23T12:10:12;8.43;;;7.72;;
6640;SDS011;3356;49.360;8.266;2022-07-23T12:12:20;8.52;;;7.68;;
6640;SDS011;3356;49.360;8.266;2022-07-23T12:14:22;8.73;;;7.93;;
6640;SDS011;3356;49.360;8.266;2022-07-23T12:16:23;9.82;;;8.98;;
6640;SDS011;3356;49.360;8.266;2022-07-23T12:18:25;9.40;;;8.48;;
6640;SDS011;3356;49.360;8.266;2022-07-23T12:20:32;9.57;;;8.05;;
6640;SDS011;3356;49.360;8.266;2022-07-23T12:22:39;8.65;;;7.93;;
6640;SDS011;3356;49.360;8.266;2022-07-23T12:24:55;9.52;;;8.73;;
6640;SDS011;3356;49.360;8.266;2022-07-23T12:27:11;9.63;;;8.40;;
6640;SDS011;3356;49.360;8.266;2022-07-23T12:29:13;8.32;;;7.47;;
6640;SDS011;3356;49.360;8.266;2022-07-23T12:31:14;8.60;;;7.90;;
6640;SDS011;3356;49.360;8.266;2022-07-23T12:33:35;8.48;;;7.78;;
6640;SDS011;3356;49.360;8.266;2022-07-23T12:35:42;8.90;;;8.00;;
6640;SDS011;3356;49.360;8.266;2022-07-23T12:37:46;11.77;;;8.68;;
6640;SDS011;3356;49.360;8.266;2022-07-23T12:39:49;8.82;;;8.07;;
6640;SDS011;3356;49.360;8.266;2022-07-23T12:41:51;9.35;;;8.55;;
6640;SDS011;3356;49.360;8.266;2022-07-23T12:43:53;8.88;;;7.65;;
6640;SDS011;3356;49.360;8.266;2022-07-23T12:46:07;9.20;;;8.35;;
6640;SDS011;3356;49.360;8.266;2022-07-23T12:48:20;10.55;;;9.07;;
6640;SDS011;3356;49.360;8.266;2022-07-23T12:50:38;11.10;;;8.93;;
6640;SDS011;3356;49.360;8.266;2022-07-23T12:52:41;9.02;;;8.13;;
6640;SDS011;3356;49.360;8.266;2022-07-23T12:54:42;10.55;;;8.35;;
6640;SDS011;3356;49.360;8.266;2022-07-23T12:56:44;8.80;;;8.05;;
6640;SDS011;3356;49.360;8.266;2022-07-23T13:01:03;8.75;;;7.72;;
6640;SDS011;3356;49.360;8.266;2022-07-23T13:03:05;9.57;;;7.55;;
6640;SDS011;3356;49.360;8.266;2022-07-23T13:05:06;10.63;;;7.93;;